createdAt,value
2019-01-19T00:02:25.284Z,72.51
2019-01-19T00:07:36.080Z,72.64
2019-01-19T00:12:50.092Z,73.21
2019-01-19T00:18:17.277Z,73.22
2019-01-19T00:23:34.619Z,72.86
2019-01-19T00:28:39.742Z,73.65
2019-01-19T00:33:39.039Z,73.35
2019-01-19T00:38:52.825Z,73.76
2019-01-19T00:43:50.037Z,74.04
2019-01-19T00:48:54.435Z,73.86
2019-01-19T00:54:08.575Z,74.04
2019-01-19T00:59:07.763Z,74.23
2019-01-19T01:04:33.426Z,73.57
2019-01-19T01:10:21.118Z,73.52
2019-01-19T01:15:56.496Z,73.76
2019-01-19T01:21:22.768Z,73.14
2019-01-19T01:26:45.852Z,73.45
2019-01-19T01:31:56.740Z,74.14
2019-01-19T01:36:58.763Z,74.77
2019-01-19T01:42:15.894Z,75.07
2019-01-19T01:47:36.218Z,75.61
2019-01-19T01:53:05.163Z,75.50
2019-01-19T01:58:04.344Z,75.77
2019-01-19T02:03:09.493Z,77.44
2019-01-19T02:08:11.453Z,76.62
2019-01-19T02:13:27.169Z,76.79
2019-01-19T02:19:04.195Z,76.93
2019-01-19T02:24:11.925Z,77.72
2019-01-19T02:29:23.203Z,78.30
2019-01-19T02:34:36.602Z,78.04
2019-01-19T02:39:41.420Z,78.33
2019-01-19T02:44:43.307Z,78.11
2019-01-19T02:49:49.733Z,78.24
2019-01-19T02:55:18.872Z,77.69
2019-01-19T03:00:59.026Z,78.58
2019-01-19T03:06:09.903Z,79.24
2019-01-19T03:11:43.837Z,78.56
2019-01-19T03:16:51.906Z,79.77
2019-01-19T03:22:05.910Z,79.87
2019-01-19T03:27:13.175Z,79.59
2019-01-19T03:32:24.037Z,79.16
2019-01-19T03:37:38.548Z,79.40
2019-01-19T03:43:04.676Z,78.96
2019-01-19T03:48:29.188Z,78.55
2019-01-19T03:53:49.711Z,78.22
2019-01-19T03:59:03.243Z,78.77
2019-01-19T04:04:32.171Z,78.78
2019-01-19T04:09:45.825Z,78.21
2019-01-19T04:15:19.655Z,78.05
2019-01-19T04:20:30.246Z,79.18
2019-01-19T04:25:29.791Z,79.24
2019-01-19T04:30:24.565Z,79.22
2019-01-19T04:35:19.186Z,78.67
2019-01-19T04:40:14.512Z,79.34
2019-01-19T04:45:09.939Z,79.46
2019-01-19T04:50:07.064Z,79.14
2019-01-19T04:55:01.675Z,79.55
2019-01-19T04:59:56.301Z,79.45
2019-01-19T05:04:50.940Z,80.10
2019-01-19T05:09:45.640Z,80.46
2019-01-19T05:14:40.265Z,80.51
2019-01-19T05:19:34.889Z,80.56
2019-01-19T05:24:29.491Z,81.00
2019-01-19T05:29:24.107Z,81.23
2019-01-19T05:34:18.730Z,80.63
2019-01-19T05:39:13.350Z,80.45
2019-01-19T05:44:07.968Z,80.36
2019-01-19T05:49:02.597Z,78.38
2019-01-19T05:53:57.210Z,78.06
2019-01-19T05:58:51.836Z,77.82
2019-01-19T06:03:46.449Z,78.48
2019-01-19T06:08:41.094Z,78.16
2019-01-19T06:13:35.706Z,77.63
2019-01-19T06:18:31.988Z,77.61
2019-01-19T06:23:26.653Z,77.44
2019-01-19T06:28:21.299Z,77.27
2019-01-19T06:33:15.937Z,77.29
2019-01-19T06:38:10.556Z,76.90
2019-01-19T06:43:05.244Z,76.84
2019-01-19T06:47:59.877Z,76.19
2019-01-19T06:52:54.549Z,75.92
2019-01-19T06:57:49.283Z,76.06
2019-01-19T07:02:44.012Z,75.91
2019-01-19T07:07:38.628Z,75.46
2019-01-19T07:12:33.275Z,76.38
2019-01-19T07:17:27.986Z,77.45
2019-01-19T07:22:22.606Z,76.76
2019-01-19T07:27:17.223Z,76.10
2019-01-19T07:32:11.961Z,76.19
2019-01-19T07:37:09.866Z,76.50
2019-01-19T07:42:03.136Z,75.51
2019-01-19T07:46:59.020Z,75.03
2019-01-19T07:51:53.667Z,74.94
2019-01-19T07:56:48.343Z,74.16
2019-01-19T08:01:42.963Z,74.54
2019-01-19T08:06:37.578Z,74.15
2019-01-19T08:11:32.199Z,75.03
2019-01-19T08:16:26.783Z,74.83
2019-01-19T08:21:21.404Z,74.82
2019-01-19T08:26:16.010Z,73.33
2019-01-19T08:31:10.619Z,73.61
2019-01-19T08:36:05.926Z,71.95
2019-01-19T08:41:00.581Z,71.79
2019-01-19T08:45:55.192Z,70.85
2019-01-19T08:50:49.873Z,69.67
2019-01-19T08:55:44.551Z,69.89
2019-01-19T09:00:39.161Z,69.93
2019-01-19T09:05:33.771Z,69.33
2019-01-19T09:10:28.534Z,69.11
2019-01-19T09:15:25.952Z,68.73
2019-01-19T09:20:20.719Z,68.26
2019-01-19T09:25:18.432Z,68.75
2019-01-19T09:30:17.415Z,67.15
2019-01-19T09:35:12.649Z,67.24
2019-01-19T09:40:17.250Z,67.00
2019-01-19T09:45:15.381Z,66.42
2019-01-19T09:50:17.337Z,66.69
2019-01-19T09:55:12.230Z,66.30
2019-01-19T10:00:26.509Z,66.23
2019-01-19T10:05:28.619Z,66.22
2019-01-19T10:10:23.463Z,64.86
2019-01-19T10:15:20.364Z,64.54
2019-01-19T10:20:27.696Z,64.87
2019-01-19T10:25:22.417Z,64.27
2019-01-19T10:30:29.059Z,63.73
2019-01-19T10:35:23.683Z,63.74
2019-01-19T10:40:19.396Z,64.96
2019-01-19T10:45:23.912Z,64.62
2019-01-19T10:50:20.325Z,64.29
2019-01-19T10:55:23.204Z,63.37
2019-01-19T11:00:33.925Z,62.89
2019-01-19T11:05:29.346Z,63.39
2019-01-19T11:10:33.415Z,63.39
2019-01-19T11:15:30.727Z,63.70
2019-01-19T11:20:31.487Z,62.82
2019-01-19T11:25:26.512Z,62.38
2019-01-19T11:30:28.330Z,61.60
2019-01-19T11:35:23.919Z,62.33
2019-01-19T11:40:26.589Z,61.80
2019-01-19T11:45:23.665Z,59.98
2019-01-19T11:50:19.160Z,59.92
2019-01-19T11:55:19.043Z,60.11
2019-01-19T12:00:24.606Z,59.25
2019-01-19T12:05:19.411Z,59.30
2019-01-19T12:10:30.313Z,59.87
2019-01-19T12:15:25.622Z,59.38
2019-01-19T12:20:35.981Z,59.72
2019-01-19T12:25:31.067Z,59.21
2019-01-19T12:30:30.245Z,58.96
2019-01-19T12:35:25.777Z,59.39
2019-01-19T12:40:26.911Z,59.67
2019-01-19T12:45:32.688Z,60.72
2019-01-19T12:50:28.800Z,61.15
2019-01-19T12:55:24.174Z,60.68
2019-01-19T13:00:23.486Z,59.12
2019-01-19T13:05:23.249Z,59.06
2019-01-19T13:10:25.787Z,60.00
2019-01-19T13:15:52.029Z,61.56
2019-01-19T13:21:23.852Z,61.66
2019-01-19T13:26:51.303Z,61.71
2019-01-19T13:32:18.518Z,61.56
2019-01-19T13:37:43.022Z,61.41
2019-01-19T13:42:56.676Z,61.84
2019-01-19T13:48:07.560Z,62.51
2019-01-19T13:53:30.479Z,62.24
2019-01-19T13:58:46.296Z,63.54
2019-01-19T14:04:07.977Z,63.90
2019-01-19T14:09:12.884Z,64.39
2019-01-19T14:14:47.941Z,64.89
2019-01-19T14:19:52.701Z,64.34
2019-01-19T14:24:57.846Z,64.16
2019-01-19T14:30:28.463Z,63.23
2019-01-19T14:35:33.582Z,64.01
2019-01-19T14:40:47.508Z,65.40
2019-01-19T14:45:46.733Z,68.18
2019-01-19T14:51:14.579Z,68.71
2019-01-19T14:56:30.321Z,68.81
2019-01-19T15:02:05.183Z,68.80
2019-01-19T15:07:35.657Z,68.82
2019-01-19T15:12:43.935Z,69.35
2019-01-19T15:17:43.158Z,69.76
2019-01-19T15:22:53.994Z,71.71
2019-01-19T15:28:29.225Z,71.44
2019-01-19T15:33:58.483Z,72.24
2019-01-19T15:38:57.675Z,71.03
2019-01-19T15:44:31.502Z,71.32
2019-01-19T15:49:48.863Z,71.97
2019-01-19T15:55:02.806Z,72.55
2019-01-19T16:00:23.095Z,72.51
2019-01-19T16:05:37.141Z,73.55
2019-01-19T16:10:42.191Z,73.62
2019-01-19T16:15:52.998Z,73.85
2019-01-19T16:21:06.812Z,74.29
2019-01-19T16:26:29.787Z,74.57
2019-01-19T16:31:34.544Z,74.50
2019-01-19T16:36:54.168Z,75.02
2019-01-19T16:42:10.710Z,75.28
2019-01-19T16:47:34.063Z,75.42
2019-01-19T16:52:50.934Z,75.88
2019-01-19T16:58:08.307Z,76.07
2019-01-19T17:03:13.440Z,76.72
2019-01-19T17:08:27.279Z,76.31
2019-01-19T17:13:28.950Z,76.76
2019-01-19T17:18:33.747Z,76.68
2019-01-19T17:23:47.982Z,76.80
2019-01-19T17:29:16.082Z,77.00
2019-01-19T17:34:42.605Z,76.46
2019-01-19T17:39:50.640Z,76.77
2019-01-19T17:45:10.598Z,76.79
2019-01-19T17:50:33.131Z,77.08
2019-01-19T17:56:02.500Z,76.78
2019-01-19T18:01:30.108Z,76.66
2019-01-19T18:06:40.827Z,76.47
2019-01-19T18:12:09.970Z,76.38
2019-01-19T18:17:23.295Z,76.37
2019-01-19T18:22:34.357Z,75.95
2019-01-19T18:27:33.567Z,75.98
2019-01-19T18:32:53.577Z,76.06
2019-01-19T18:38:10.317Z,76.55
2019-01-19T18:43:18.350Z,76.36
2019-01-19T18:48:20.352Z,76.54
2019-01-19T18:53:37.232Z,77.15
2019-01-19T18:59:04.976Z,77.92
2019-01-19T19:04:19.372Z,79.01
2019-01-19T19:09:36.573Z,78.47
2019-01-19T19:14:41.188Z,77.90
2019-01-19T19:19:58.507Z,78.39
2019-01-19T19:25:25.952Z,77.34
2019-01-19T19:30:25.136Z,77.98
2019-01-19T19:35:46.726Z,78.45
2019-01-19T19:41:14.384Z,78.88
2019-01-19T19:46:19.506Z,78.82
2019-01-19T19:51:37.844Z,78.98
2019-01-19T19:56:30.746Z,79.53
2019-01-19T20:01:25.434Z,80.24
2019-01-19T20:06:20.131Z,80.22
2019-01-19T20:11:14.854Z,80.47
2019-01-19T20:16:09.824Z,80.37
2019-01-19T20:21:04.555Z,80.78
2019-01-19T20:25:59.181Z,81.16
2019-01-19T20:30:53.813Z,81.42
2019-01-19T20:35:48.453Z,81.87
2019-01-19T20:40:43.059Z,81.95
2019-01-19T20:45:37.742Z,81.38
2019-01-19T20:50:32.361Z,81.70
2019-01-19T20:55:27.062Z,82.80
2019-01-19T21:00:22.192Z,81.96
2019-01-19T21:05:16.883Z,83.03
2019-01-19T21:10:11.808Z,82.85
2019-01-19T21:15:15.247Z,82.38
2019-01-19T21:20:14.013Z,83.31
2019-01-19T21:25:11.530Z,83.14
2019-01-19T21:30:10.746Z,82.82
2019-01-19T21:35:07.490Z,82.93
2019-01-19T21:40:02.119Z,83.71
2019-01-19T21:44:56.785Z,83.51
2019-01-19T21:49:51.411Z,82.97
2019-01-19T21:54:46.082Z,83.23
2019-01-19T21:59:40.742Z,83.29
2019-01-19T22:04:35.396Z,82.43
2019-01-19T22:09:30.008Z,82.80
2019-01-19T22:14:24.679Z,81.59
2019-01-19T22:19:19.304Z,80.37
2019-01-19T22:24:13.908Z,80.53
2019-01-19T22:29:08.763Z,81.13
2019-01-19T22:34:03.436Z,80.83
2019-01-19T22:38:58.118Z,81.13
2019-01-19T22:43:52.759Z,81.63
2019-01-19T22:48:47.385Z,81.29
2019-01-19T22:53:41.984Z,82.70
2019-01-19T22:58:36.680Z,81.75
2019-01-19T23:03:33.378Z,81.58
2019-01-19T23:08:28.071Z,81.25
2019-01-19T23:13:22.697Z,81.08
2019-01-19T23:18:17.433Z,81.11
2019-01-19T23:23:12.088Z,81.61
2019-01-19T23:28:06.788Z,81.22
2019-01-19T23:33:01.421Z,82.28
2019-01-19T23:37:56.042Z,81.02
2019-01-19T23:42:50.716Z,80.55
2019-01-19T23:47:45.340Z,80.17
2019-01-19T23:52:40.006Z,82.13
2019-01-19T23:57:34.705Z,82.53
